Time;durP1;ratioP1;P1;durP2;ratioP2;P2;SDS_P1;SDS_P2;PMS_P1;PMS_P2;Temp;Humidity;BMP_temperature;BMP_pressure;BME280_temperature;BME280_humidity;BME280_pressure;Samples;Min_cycle;Max_cycle;Signal;HPM_P1;HPM_P2
2021/08/05 01:41:40;;;;;;;36.95;19.83;;;13.70;99.90;;;;;;6007935;23;20349;-91
2021/08/05 02:06:06;;;;;;;25.30;16.80;;;13.70;99.90;;;;;;6068150;23;20380;-92
2021/08/05 02:21:42;;;;;;;31.67;19.48;;;13.70;99.90;;;;;;6137147;23;20030;-91
2021/08/05 02:30:05;;;;;;;30.52;18.70;;;13.80;99.90;;;;;;5930206;24;20089;-91
2021/08/05 02:37:27;;;;;;;27.08;17.77;;;13.70;99.90;;;;;;5841279;24;20015;-90
2021/08/05 02:49:57;;;;;;;32.80;19.73;;;13.70;99.90;;;;;;5987442;23;20019;-90
2021/08/05 02:52:45;;;;;;;31.48;19.38;;;13.70;99.90;;;;;;6038373;23;20034;-90
2021/08/05 03:00:10;;;;;;;32.95;21.30;;;13.70;99.90;;;;;;6036270;23;20118;-92
2021/08/05 03:03:37;;;;;;;32.50;21.25;;;13.70;99.90;;;;;;6054195;23;20068;-91
2021/08/05 03:06:39;;;;;;;41.00;23.17;;;13.70;99.90;;;;;;6151781;23;20464;-90
2021/08/05 03:13:57;;;;;;;39.20;20.73;;;13.70;99.90;;;;;;6212024;23;20016;-92
2021/08/05 03:16:45;;;;;;;42.22;21.83;;;13.70;99.90;;;;;;6193472;23;20306;-90
2021/08/05 03:19:34;;;;;;;31.33;20.83;;;13.70;99.90;;;;;;6211667;23;20024;-91
2021/08/05 03:22:39;;;;;;;32.28;21.52;;;13.70;99.90;;;;;;6212470;23;20025;-90
2021/08/05 03:26:09;;;;;;;32.75;20.85;;;13.70;99.90;;;;;;6091516;23;20049;-91
2021/08/05 03:29:24;;;;;;;30.83;20.40;;;13.70;99.90;;;;;;6080090;23;20074;-90
2021/08/05 04:14:18;;;;;;;24.70;15.77;;;13.70;99.90;;;;;;6304904;22;20026;-89
2021/08/05 04:17:27;;;;;;;18.60;13.80;;;13.70;99.90;;;;;;6285557;22;20035;-91
2021/08/05 04:33:24;;;;;;;22.45;10.68;;;13.70;99.90;;;;;;6274268;22;20080;-89
2021/08/05 04:48:27;;;;;;;13.77;8.93;;;13.80;99.90;;;;;;6276348;22;20295;-89
2021/08/05 04:56:22;;;;;;;17.23;9.15;;;13.70;99.90;;;;;;6212635;23;20436;-90
2021/08/05 04:59:09;;;;;;;;;;;13.80;99.90;;;;;;6191533;23;20422;-90
2021/08/05 05:01:59;;;;;;;13.18;9.30;;;13.80;99.90;;;;;;6211861;23;19923;-89
2021/08/05 05:27:58;;;;;;;;;;;;;;;;;;;;;
2021/08/05 05:31:24;;;;;;;;;;;;;;;;;;;;;
2021/08/05 05:52:23;;;;;;;17.00;8.85;;;14.00;99.90;;;;;;6298229;22;20019;-90
2021/08/05 05:55:11;;;;;;;13.10;8.63;;;14.00;99.90;;;;;;6260997;22;20069;-86
2021/08/05 05:58:01;;;;;;;13.05;8.10;;;14.20;99.90;;;;;;6282207;22;20028;-86
2021/08/05 06:00:49;;;;;;;11.00;8.07;;;14.40;99.90;;;;;;6305876;22;20098;-85
2021/08/05 06:03:39;;;;;;;12.98;7.03;;;14.60;99.90;;;;;;6303572;22;20453;-85
2021/08/05 06:06:26;;;;;;;10.27;6.72;;;14.80;99.90;;;;;;6262187;22;20027;-86
2021/08/05 06:09:16;;;;;;;11.00;6.40;;;15.00;99.90;;;;;;6283758;22;20031;-87
2021/08/05 06:12:06;;;;;;;14.73;6.68;;;15.10;99.90;;;;;;6262755;22;20031;-87
2021/08/05 06:14:53;;;;;;;10.07;6.55;;;15.00;99.90;;;;;;6305375;22;20213;-87
2021/08/05 06:17:41;;;;;;;8.30;6.15;;;15.10;99.90;;;;;;6305532;22;20023;-86
2021/08/05 06:20:29;;;;;;;9.60;6.20;;;15.10;99.90;;;;;;6305922;22;20401;-87
2021/08/05 06:23:20;;;;;;;8.80;5.40;;;15.30;99.90;;;;;;6283904;22;20085;-88
2021/08/05 06:26:08;;;;;;;8.35;5.50;;;15.60;99.90;;;;;;6302418;22;20101;-88
2021/08/05 06:28:55;;;;;;;9.63;5.20;;;15.90;99.90;;;;;;6305742;22;20031;-86
2021/08/05 06:31:55;;;;;;;9.88;4.95;;;16.30;99.90;;;;;;6287425;22;20023;-91
2021/08/05 06:34:55;;;;;;;10.27;4.60;;;16.70;99.90;;;;;;6272027;22;20027;-91
2021/08/05 06:37:52;;;;;;;5.80;3.90;;;17.20;99.90;;;;;;6266470;22;20104;-92
2021/08/05 06:40:44;;;;;;;9.90;3.83;;;17.70;99.90;;;;;;6305823;22;20114;-91
2021/08/05 06:43:33;;;;;;;10.65;3.78;;;18.10;99.90;;;;;;6282559;22;20024;-91
2021/08/05 06:46:20;;;;;;;4.30;3.60;;;18.30;99.90;;;;;;6285176;22;20027;-92
2021/08/05 06:49:10;;;;;;;8.18;3.92;;;18.10;99.90;;;;;;6284801;22;20168;-91
2021/08/05 06:52:04;;;;;;;10.52;3.97;;;18.00;99.90;;;;;;6264299;22;20024;-90
2021/08/05 06:54:55;;;;;;;8.15;3.28;;;18.00;99.90;;;;;;6283435;22;20019;-89
2021/08/05 06:57:49;;;;;;;7.38;3.63;;;17.90;99.90;;;;;;6309926;22;20023;-91
2021/08/05 07:00:57;;;;;;;5.43;3.67;;;17.70;99.90;;;;;;6295243;22;20026;-91
2021/08/05 07:03:50;;;;;;;6.13;3.40;;;17.80;99.90;;;;;;6294589;22;20027;-93
2021/08/05 07:06:46;;;;;;;3.65;3.17;;;18.00;99.90;;;;;;6316555;22;20027;-92
2021/08/05 07:09:36;;;;;;;6.95;3.65;;;18.00;99.90;;;;;;6287129;22;20027;-91
2021/08/05 07:12:32;;;;;;;5.72;3.33;;;17.90;99.90;;;;;;6294949;22;20075;-91
2021/08/05 07:15:21;;;;;;;5.85;3.60;;;17.70;99.90;;;;;;6309008;22;20050;-88
2021/08/05 07:18:08;;;;;;;6.00;3.50;;;17.40;99.90;;;;;;6290093;22;20052;-88
2021/08/05 07:21:00;;;;;;;7.40;3.60;;;17.50;99.90;;;;;;6288650;22;20023;-86
2021/08/05 07:24:06;;;;;;;6.82;3.85;;;17.50;99.90;;;;;;6312276;22;20019;-91
2021/08/05 07:27:03;;;;;;;9.45;3.75;;;17.60;99.90;;;;;;6311555;22;20023;-89
2021/08/05 07:29:51;;;;;;;6.20;3.28;;;17.70;99.90;;;;;;6311473;22;20023;-89
2021/08/05 07:32:43;;;;;;;6.03;3.33;;;17.70;99.90;;;;;;6266071;22;20041;-88
2021/08/05 07:35:56;;;;;;;4.10;3.03;;;18.00;99.90;;;;;;6264355;22;20104;-89
2021/08/05 07:38:57;;;;;;;4.00;3.10;;;17.80;99.90;;;;;;6272705;22;20318;-88
2021/08/05 07:41:46;;;;;;;4.82;3.10;;;17.90;99.90;;;;;;6266699;22;20430;-88
2021/08/05 07:44:34;;;;;;;4.35;3.05;;;17.90;99.90;;;;;;6294634;22;20023;-91
2021/08/05 07:47:27;;;;;;;5.95;3.30;;;18.20;99.90;;;;;;6295873;22;20023;-88
2021/08/05 07:50:21;;;;;;;6.07;3.75;;;18.50;99.90;;;;;;6298186;22;20049;-91
2021/08/05 07:53:08;;;;;;;5.85;3.40;;;18.30;99.90;;;;;;6318544;22;20430;-90
2021/08/05 07:55:56;;;;;;;8.73;3.53;;;18.00;99.90;;;;;;6294064;22;20029;-90
2021/08/05 07:58:51;;;;;;;6.43;3.80;;;17.80;99.90;;;;;;6294643;22;20084;-89
2021/08/05 08:01:41;;;;;;;5.85;3.22;;;17.60;99.90;;;;;;6297556;22;20064;-89
2021/08/05 08:04:29;;;;;;;5.38;3.50;;;17.70;99.90;;;;;;6291301;22;20028;-90
2021/08/05 08:07:17;;;;;;;8.13;4.18;;;18.00;99.90;;;;;;6287791;22;20426;-90
2021/08/05 08:10:13;;;;;;;3.92;3.00;;;18.30;99.90;;;;;;6286988;22;20023;-89
2021/08/05 08:13:03;;;;;;;11.50;3.58;;;18.50;99.90;;;;;;6290398;22;20031;-90
2021/08/05 08:15:53;;;;;;;6.88;3.22;;;18.70;99.90;;;;;;6316141;22;20456;-89
2021/08/05 08:18:43;;;;;;;10.43;3.45;;;18.70;99.90;;;;;;6310227;22;20019;-89
2021/08/05 08:21:33;;;;;;;4.97;3.42;;;18.40;99.90;;;;;;6288786;22;20489;-88
2021/08/05 08:24:25;;;;;;;6.18;3.22;;;18.50;99.90;;;;;;6307328;22;20023;-90
2021/08/05 08:27:16;;;;;;;4.00;2.90;;;18.40;99.90;;;;;;6311790;22;20031;-91
2021/08/05 08:30:14;;;;;;;4.05;2.92;;;18.50;99.90;;;;;;6282624;22;20038;-89
2021/08/05 08:33:04;;;;;;;3.55;2.72;;;18.80;99.90;;;;;;6291479;22;20023;-92
2021/08/05 08:36:01;;;;;;;;;;;19.00;99.90;;;;;;6286723;22;20030;-90
2021/08/05 08:38:54;;;;;;;6.85;3.17;;;19.10;99.90;;;;;;6311020;22;19949;-91
2021/08/05 08:41:42;;;;;;;4.80;2.75;;;19.80;99.90;;;;;;6286962;22;20443;-89
2021/08/05 08:44:30;;;;;;;3.05;2.42;;;21.10;99.90;;;;;;6310983;22;20028;-90
2021/08/05 08:47:21;;;;;;;6.15;2.53;;;21.80;99.90;;;;;;6286410;22;20034;-92
2021/08/05 08:50:18;;;;;;;5.40;2.17;;;22.60;99.90;;;;;;6289523;22;20023;-91
2021/08/05 08:53:12;;;;;;;2.42;2.00;;;23.00;99.90;;;;;;6286489;22;20039;-90
2021/08/05 08:56:10;;;;;;;2.53;1.75;;;23.80;94.10;;;;;;6287447;22;20035;-91
2021/08/05 08:59:00;;;;;;;10.57;1.83;;;23.60;93.10;;;;;;6283598;22;20034;-90
2021/08/05 09:01:51;;;;;;;2.05;1.80;;;23.40;92.20;;;;;;6284894;22;20105;-90
2021/08/05 09:04:40;;;;;;;2.00;1.80;;;23.40;92.20;;;;;;6308098;22;20023;-89
2021/08/05 09:07:31;;;;;;;2.25;1.50;;;23.60;90.80;;;;;;6287951;22;20048;-94
2021/08/05 09:10:35;;;;;;;2.55;1.85;;;23.60;86.90;;;;;;6297186;22;20027;-94
2021/08/05 09:13:49;;;;;;;4.40;1.70;;;22.50;90.50;;;;;;6148659;23;20044;-91
2021/08/05 09:17:32;;;;;;;;;;;;;;;;;;;;;
2021/08/05 09:20:20;;;;;;;6.32;1.80;;;23.30;90.60;;;;;;6156704;23;20105;-90
2021/08/05 09:23:44;;;;;;;1.55;1.45;;;23.50;88.80;;;;;;6157613;23;20010;-90
2021/08/05 09:26:57;;;;;;;;;;;;;;;;;;;;;
2021/08/05 09:30:07;;;;;;;5.05;2.03;;;23.50;87.00;;;;;;6159572;23;20113;-93
2021/08/05 09:33:53;;;;;;;;;;;;;;;;;;;;;
2021/08/05 09:37:46;;;;;;;;;;;;;;;;;;;;;
2021/08/05 09:41:15;;;;;;;3.15;2.08;;;22.30;89.60;;;;;;6220189;23;20138;-92
2021/08/05 09:44:13;;;;;;;4.32;1.73;;;21.90;92.60;;;;;;6217261;23;20029;-92
2021/08/05 09:47:13;;;;;;;3.88;2.20;;;21.80;92.20;;;;;;6198571;23;20093;-92
2021/08/05 09:50:07;;;;;;;3.42;1.50;;;23.20;90.40;;;;;;6199306;23;20245;-91
2021/08/05 09:53:15;;;;;;;3.70;2.03;;;25.00;83.60;;;;;;6216581;23;20020;-90
2021/08/05 09:56:36;;;;;;;2.83;2.20;;;25.30;75.60;;;;;;6288532;22;20483;-91
2021/08/05 09:59:31;;;;;;;3.60;1.77;;;24.70;78.80;;;;;;6286113;22;20050;-88
2021/08/05 10:02:25;;;;;;;2.47;1.90;;;24.00;83.70;;;;;;6307021;22;20019;-91
2021/08/05 10:05:24;;;;;;;3.42;1.90;;;24.10;84.50;;;;;;6288490;22;20102;-91
2021/08/05 10:08:15;;;;;;;3.03;1.88;;;23.70;84.10;;;;;;6287485;22;20371;-90
2021/08/05 10:11:06;;;;;;;4.70;1.88;;;23.10;89.20;;;;;;6287443;22;20019;-91
2021/08/05 10:14:41;;;;;;;5.03;2.03;;;23.00;90.10;;;;;;6289651;22;20093;-93
2021/08/05 10:18:35;;;;;;;1.67;1.23;;;24.00;85.80;;;;;;6246231;23;20147;-92
2021/08/05 10:21:50;;;;;;;2.35;1.45;;;24.50;78.20;;;;;;6174744;23;20207;-91
2021/08/05 10:25:21;;;;;;;1.83;1.17;;;23.90;77.60;;;;;;6224791;23;20443;-90
2021/08/05 10:28:23;;;;;;;3.40;1.25;;;24.20;75.40;;;;;;6224921;23;20021;-90
2021/08/05 10:31:16;;;;;;;3.33;1.20;;;24.40;76.80;;;;;;6226683;23;20051;-91
2021/08/05 10:34:12;;;;;;;1.20;1.02;;;25.10;74.90;;;;;;6251726;22;20031;-91
2021/08/05 10:37:21;;;;;;;2.13;1.02;;;25.60;71.30;;;;;;6226027;22;20030;-90
2021/08/05 10:40:22;;;;;;;3.58;1.05;;;24.80;72.40;;;;;;6249077;22;20039;-93
2021/08/05 10:46:51;;;;;;;1.10;1.00;;;24.90;73.50;;;;;;6249353;23;20466;-91
2021/08/05 10:49:39;;;;;;;3.58;1.13;;;26.20;68.80;;;;;;6314349;22;20195;-92
2021/08/05 10:52:38;;;;;;;1.20;1.02;;;25.90;69.20;;;;;;6312013;22;20038;-90
2021/08/05 10:56:11;;;;;;;2.25;1.20;;;25.60;71.10;;;;;;6287502;22;20027;-89
2021/08/05 10:59:29;;;;;;;1.88;1.25;;;24.60;71.70;;;;;;6102092;23;20117;-92
2021/08/05 11:07:15;;;;;;;0.95;0.85;;;26.50;66.90;;;;;;6075768;23;20062;-91
2021/08/05 11:10:19;;;;;;;1.75;1.10;;;28.20;64.30;;;;;;6050930;23;20030;-93
2021/08/05 11:13:11;;;;;;;1.45;1.20;;;29.20;57.40;;;;;;6098653;23;20034;-93
2021/08/05 11:16:09;;;;;;;2.28;1.33;;;29.30;54.70;;;;;;6101786;23;20040;-93
2021/08/05 11:19:40;;;;;;;2.78;1.45;;;28.40;56.70;;;;;;6246167;23;20024;-93
2021/08/05 11:22:33;;;;;;;1.73;1.15;;;27.50;59.00;;;;;;6228234;23;20418;-92
2021/08/05 11:25:32;;;;;;;2.28;1.38;;;26.50;61.00;;;;;;6246089;23;20023;-92
2021/08/05 11:36:48;;;;;;;2.08;1.50;;;24.50;69.70;;;;;;6312950;22;20030;-92
2021/08/05 11:39:56;;;;;;;3.00;1.50;;;23.70;71.10;;;;;;6311646;22;20030;-89
2021/08/05 11:43:35;;;;;;;1.73;1.63;;;23.50;75.20;;;;;;6287992;22;20468;-92
2021/08/05 11:50:51;;;;;;;2.25;1.38;;;25.60;65.50;;;;;;6185476;23;20017;-92
2021/08/05 11:54:19;;;;;;;1.17;1.00;;;28.00;58.50;;;;;;6104188;22;20040;-92
2021/08/05 11:57:23;;;;;;;0.85;0.85;;;29.30;56.50;;;;;;6180839;22;20072;-90
2021/08/05 12:00:23;;;;;;;1.83;0.90;;;29.40;54.00;;;;;;6287717;22;20037;-92
2021/08/05 12:03:12;;;;;;;6.75;0.95;;;29.00;55.00;;;;;;6308007;22;20051;-90
2021/08/05 12:06:00;;;;;;;0.82;0.80;;;28.00;56.10;;;;;;6287982;22;20043;-89
2021/08/05 12:09:14;;;;;;;1.38;0.98;;;25.70;59.50;;;;;;6290546;22;20050;-90
2021/08/05 12:12:01;;;;;;;0.90;0.90;;;24.40;63.70;;;;;;6308103;22;20094;-92
2021/08/05 12:14:54;;;;;;;3.13;1.10;;;24.20;66.20;;;;;;6264987;22;20027;-90
2021/08/05 12:17:50;;;;;;;3.60;0.98;;;24.20;66.10;;;;;;6287464;22;20041;-91
2021/08/05 12:21:02;;;;;;;1.13;1.00;;;24.30;66.00;;;;;;6319137;22;20019;-90
2021/08/05 12:23:55;;;;;;;1.98;1.00;;;24.20;68.30;;;;;;6319739;22;20072;-91
2021/08/05 12:27:00;;;;;;;0.77;0.70;;;24.10;67.90;;;;;;6301176;22;20027;-88
2021/08/05 12:30:06;;;;;;;1.48;0.70;;;24.30;69.80;;;;;;6292198;22;20027;-91
2021/08/05 12:33:05;;;;;;;0.63;0.63;;;26.20;68.00;;;;;;6323930;22;20033;-91
2021/08/05 12:36:24;;;;;;;1.15;0.70;;;28.20;57.30;;;;;;6325092;22;20074;-91
2021/08/05 12:43:41;;;;;;;;;;;;;;;;;;;;;
2021/08/05 12:51:30;;;;;;;6.55;2.97;;;24.10;81.20;;;;;;6157609;23;20025;-89
2021/08/05 12:54:24;;;;;;;6.28;2.00;;;23.30;99.90;;;;;;6154286;23;20026;-90
2021/08/05 12:57:38;;;;;;;6.88;1.90;;;22.40;99.90;;;;;;6138310;23;20022;-92
2021/08/05 13:05:12;;;;;;;3.53;1.23;;;21.80;99.90;;;;;;6157927;23;20026;-91
2021/08/05 13:08:58;;;;;;;;;;;;;;;;;;;;;
2021/08/05 13:12:56;;;;;;;;;;;;;;;;;;;;;
2021/08/05 13:15:50;;;;;;;1.83;1.23;;;21.80;99.90;;;;;;6308647;22;20288;-90
2021/08/05 13:18:38;;;;;;;3.05;1.20;;;22.00;99.90;;;;;;6284947;22;20071;-90
2021/08/05 13:21:50;;;;;;;3.65;1.30;;;23.20;99.90;;;;;;6265244;22;20024;-91
2021/08/05 13:24:38;;;;;;;1.20;0.85;;;24.60;99.90;;;;;;6287633;22;20019;-92
2021/08/05 13:27:34;;;;;;;1.52;0.98;;;25.60;99.90;;;;;;6287089;22;20026;-91
2021/08/05 13:30:31;;;;;;;1.02;0.93;;;26.40;97.60;;;;;;6287145;22;20054;-91
2021/08/05 13:33:38;;;;;;;3.53;1.10;;;26.30;95.90;;;;;;6287048;22;20031;-91
2021/08/05 13:36:49;;;;;;;6.22;1.20;;;25.60;96.20;;;;;;6307958;22;20027;-93
2021/08/05 13:40:25;;;;;;;2.73;1.23;;;25.50;99.90;;;;;;6290867;22;20019;-92
2021/08/05 13:47:42;;;;;;;1.95;0.98;;;27.30;95.40;;;;;;6317197;22;20015;-93
2021/08/05 13:51:18;;;;;;;1.30;1.10;;;26.30;93.30;;;;;;6249044;22;20027;-93
2021/08/05 13:54:42;;;;;;;2.88;1.27;;;25.00;93.70;;;;;;6165750;23;20013;-92
2021/08/05 13:57:44;;;;;;;3.45;1.20;;;24.10;97.70;;;;;;6167494;23;20021;-93
2021/08/05 14:05:22;;;;;;;3.35;1.63;;;24.30;99.90;;;;;;6041347;23;20365;-93
2021/08/05 14:12:27;;;;;;;2.08;1.33;;;24.60;97.70;;;;;;6011973;23;20037;-91
2021/08/05 14:15:41;;;;;;;1.15;1.02;;;24.20;98.00;;;;;;6052984;23;20086;-93
2021/08/05 14:18:36;;;;;;;1.75;1.00;;;24.30;97.00;;;;;;6115677;23;20217;-93
2021/08/05 14:21:34;;;;;;;1.70;1.20;;;24.40;97.60;;;;;;6193173;23;20048;-93
2021/08/05 14:28:28;;;;;;;1.25;1.13;;;24.60;95.10;;;;;;6136434;23;20013;-93
2021/08/05 14:44:23;;;;;;;1.20;1.10;;;24.50;90.70;;;;;;5981439;24;20537;-91
2021/08/05 14:47:35;;;;;;;1.88;1.25;;;24.00;92.60;;;;;;6023037;23;20094;-93
2021/08/05 14:50:27;;;;;;;2.47;1.10;;;23.70;95.80;;;;;;6071122;23;20023;-94
2021/08/05 14:53:20;;;;;;;2.33;0.95;;;23.30;97.00;;;;;;6107595;22;20037;-90
2021/08/05 14:56:08;;;;;;;2.03;1.10;;;23.30;97.10;;;;;;6262815;22;20367;-90
2021/08/05 14:59:13;;;;;;;1.10;1.00;;;23.10;96.60;;;;;;6285448;22;20030;-93
2021/08/05 15:06:59;;;;;;;1.98;1.40;;;23.30;96.20;;;;;;6125140;23;20033;-94
2021/08/05 15:10:29;;;;;;;1.65;1.27;;;22.70;97.00;;;;;;6179854;23;20028;-93
2021/08/05 15:13:30;;;;;;;1.38;0.90;;;21.20;99.90;;;;;;6242918;23;20103;-89
2021/08/05 15:16:20;;;;;;;1.42;1.20;;;19.70;99.90;;;;;;6203705;22;20024;-90
2021/08/05 15:19:11;;;;;;;1.42;1.10;;;18.90;99.90;;;;;;6242893;23;20031;-90
2021/08/05 15:21:58;;;;;;;2.95;1.50;;;18.60;99.90;;;;;;6223167;23;20035;-92
2021/08/05 15:24:49;;;;;;;1.60;1.17;;;18.40;99.90;;;;;;6247093;22;20023;-92
2021/08/05 15:27:40;;;;;;;1.35;1.23;;;18.20;99.90;;;;;;6243860;23;20028;-88
2021/08/05 15:30:30;;;;;;;3.25;1.23;;;18.00;99.90;;;;;;6248017;23;20034;-92
2021/08/05 15:33:18;;;;;;;1.65;1.20;;;18.10;99.90;;;;;;6288749;22;20034;-89
2021/08/05 15:36:10;;;;;;;1.20;1.10;;;18.00;99.90;;;;;;6243565;22;20023;-91
2021/08/05 15:39:06;;;;;;;4.97;1.35;;;18.10;99.90;;;;;;6289021;22;20077;-91
2021/08/05 15:41:57;;;;;;;3.00;1.20;;;18.30;99.90;;;;;;6310201;22;20113;-93
2021/08/05 15:44:47;;;;;;;1.63;1.30;;;18.40;99.90;;;;;;6307521;22;20019;-91
2021/08/05 15:47:38;;;;;;;3.92;1.98;;;18.40;99.90;;;;;;6288456;22;20062;-90
2021/08/05 15:50:26;;;;;;;3.40;1.80;;;18.20;99.90;;;;;;6267247;22;20042;-92
2021/08/05 15:53:13;;;;;;;3.42;1.98;;;17.90;99.90;;;;;;6264631;22;20051;-89
2021/08/05 15:56:03;;;;;;;2.85;2.22;;;17.70;99.90;;;;;;6287396;22;20350;-87
2021/08/05 15:58:50;;;;;;;2.80;2.10;;;17.50;99.90;;;;;;6285409;22;20104;-88
2021/08/05 16:01:40;;;;;;;3.92;1.90;;;17.40;99.90;;;;;;6304170;22;20037;-91
2021/08/05 16:04:38;;;;;;;3.10;1.40;;;17.40;99.90;;;;;;6282306;22;20033;-92
2021/08/05 16:07:29;;;;;;;1.70;1.40;;;17.50;99.90;;;;;;6285290;22;20031;-90
2021/08/05 16:10:20;;;;;;;3.10;1.80;;;17.60;99.90;;;;;;6288488;22;20027;-92
2021/08/05 16:13:10;;;;;;;3.85;1.80;;;17.90;99.90;;;;;;6284675;22;20027;-90
2021/08/05 16:15:57;;;;;;;1.25;1.15;;;18.30;99.90;;;;;;6284219;22;20094;-90
2021/08/05 16:18:45;;;;;;;2.53;1.20;;;18.60;99.90;;;;;;6282554;22;20118;-88
2021/08/05 16:21:36;;;;;;;3.47;1.20;;;18.70;99.90;;;;;;6283263;22;20020;-92
2021/08/05 16:24:25;;;;;;;3.00;1.73;;;18.80;99.90;;;;;;6264152;22;20023;-88
2021/08/05 16:27:13;;;;;;;4.45;1.17;;;18.90;99.90;;;;;;6281687;22;20031;-90
2021/08/05 16:30:02;;;;;;;3.40;0.90;;;18.90;99.90;;;;;;6306530;22;20038;-89
2021/08/05 16:32:49;;;;;;;2.38;0.90;;;19.10;99.90;;;;;;6285029;22;20034;-91
2021/08/05 16:35:42;;;;;;;1.65;0.98;;;19.20;99.90;;;;;;6284258;22;20088;-91
2021/08/05 16:38:33;;;;;;;1.10;0.95;;;19.20;99.90;;;;;;6282836;22;20026;-91
2021/08/05 16:41:21;;;;;;;0.95;0.80;;;19.30;99.90;;;;;;6282762;22;20073;-92
2021/08/05 16:44:49;;;;;;;1.27;0.90;;;19.10;99.90;;;;;;6289318;22;20027;-90
2021/08/05 16:47:42;;;;;;;0.60;0.60;;;19.00;99.90;;;;;;6303975;22;20074;-92
2021/08/05 16:50:30;;;;;;;0.80;0.75;;;18.90;99.90;;;;;;6288887;22;20027;-88
2021/08/05 16:53:21;;;;;;;3.50;0.90;;;18.80;99.90;;;;;;6302896;22;20023;-89
2021/08/05 16:56:11;;;;;;;0.60;0.60;;;18.80;99.90;;;;;;6280637;22;20031;-87
2021/08/05 16:58:58;;;;;;;0.77;0.73;;;18.80;99.90;;;;;;6278668;22;20097;-90
2021/08/05 17:01:47;;;;;;;1.63;1.10;;;18.80;99.90;;;;;;6282233;22;20084;-88
2021/08/05 17:04:34;;;;;;;0.60;0.60;;;18.80;99.90;;;;;;6279104;22;20023;-86
2021/08/05 17:07:23;;;;;;;2.42;1.00;;;18.90;99.90;;;;;;6279869;22;20114;-86
2021/08/05 17:10:10;;;;;;;2.00;1.38;;;18.90;99.90;;;;;;6279412;22;20086;-89
2021/08/05 17:12:58;;;;;;;1.00;0.90;;;19.00;99.90;;;;;;6281281;22;20027;-89
2021/08/05 17:15:45;;;;;;;3.20;0.65;;;19.00;99.90;;;;;;6283851;22;20053;-88
2021/08/05 17:18:33;;;;;;;3.28;0.65;;;18.90;99.90;;;;;;6304972;22;20080;-89
2021/08/05 17:21:23;;;;;;;1.45;0.82;;;18.80;99.90;;;;;;6284586;22;20084;-89
2021/08/05 17:24:12;;;;;;;2.15;0.73;;;18.70;99.90;;;;;;6283324;22;20023;-91
2021/08/05 17:27:40;;;;;;;1.27;0.75;;;18.70;99.90;;;;;;6305357;22;20104;-91
2021/08/05 17:30:35;;;;;;;0.65;0.65;;;18.60;99.90;;;;;;6282995;22;20027;-90
2021/08/05 17:33:23;;;;;;;1.27;0.80;;;18.50;99.90;;;;;;6285154;22;20098;-89
2021/08/05 17:36:13;;;;;;;1.00;0.93;;;18.50;99.90;;;;;;6282989;22;20027;-91
2021/08/05 17:39:02;;;;;;;2.25;0.80;;;18.60;99.90;;;;;;6263496;22;20330;-89
2021/08/05 17:41:49;;;;;;;1.25;0.90;;;18.50;99.90;;;;;;6283628;22;20049;-88
2021/08/05 17:44:38;;;;;;;0.95;0.88;;;18.50;99.90;;;;;;6242554;22;20418;-89
2021/08/05 17:47:25;;;;;;;1.80;0.70;;;18.40;99.90;;;;;;6262680;22;20031;-89
2021/08/05 17:50:14;;;;;;;2.75;1.05;;;18.40;99.90;;;;;;6282345;22;20075;-90
2021/08/05 17:53:01;;;;;;;1.00;0.90;;;18.30;99.90;;;;;;6282587;22;20027;-89
2021/08/05 17:55:49;;;;;;;1.55;1.00;;;18.30;99.90;;;;;;6304576;22;20054;-90
2021/08/05 17:58:38;;;;;;;1.20;0.85;;;18.20;99.90;;;;;;6281037;22;20334;-91
2021/08/05 18:01:27;;;;;;;1.20;0.80;;;18.20;99.90;;;;;;6307087;22;20019;-92
2021/08/05 18:04:40;;;;;;;0.80;0.80;;;18.20;99.90;;;;;;6282782;22;20023;-93
2021/08/05 18:07:27;;;;;;;1.40;1.00;;;18.10;99.90;;;;;;6284078;22;20023;-91
2021/08/05 18:10:18;;;;;;;1.40;1.30;;;18.10;99.90;;;;;;6264137;22;20153;-92
2021/08/05 18:13:05;;;;;;;2.35;0.98;;;18.10;99.90;;;;;;6281989;22;20027;-87
2021/08/05 18:15:52;;;;;;;1.13;0.80;;;18.10;99.90;;;;;;6305652;22;20050;-91
2021/08/05 18:18:40;;;;;;;1.70;1.00;;;18.00;99.90;;;;;;6305267;22;20100;-86
2021/08/05 18:21:34;;;;;;;2.70;1.08;;;17.90;99.90;;;;;;6283308;22;20023;-90
2021/08/05 18:24:21;;;;;;;1.08;0.90;;;17.90;99.90;;;;;;6285025;22;20027;-86
2021/08/05 18:27:12;;;;;;;1.17;0.77;;;17.80;99.90;;;;;;6304460;22;20152;-90
2021/08/05 18:30:00;;;;;;;1.00;0.80;;;17.80;99.90;;;;;;6279863;22;20304;-92
2021/08/05 18:32:48;;;;;;;1.60;1.08;;;17.70;99.90;;;;;;6282357;22;20087;-86
2021/08/05 18:35:38;;;;;;;1.30;1.10;;;17.70;99.90;;;;;;6284233;22;20492;-88
2021/08/05 18:38:25;;;;;;;1.00;0.88;;;17.70;99.90;;;;;;6284440;22;20430;-90
2021/08/05 18:41:15;;;;;;;1.63;1.15;;;17.70;99.90;;;;;;6280928;22;20019;-89
2021/08/05 18:44:03;;;;;;;1.83;0.95;;;17.70;99.90;;;;;;6284310;22;20047;-89
2021/08/05 18:46:53;;;;;;;2.45;1.00;;;17.70;99.90;;;;;;6306283;22;20019;-89
2021/08/05 18:49:41;;;;;;;3.95;1.15;;;17.70;99.90;;;;;;6307382;22;20081;-91
2021/08/05 18:52:29;;;;;;;3.58;1.15;;;17.70;99.90;;;;;;6301698;22;20085;-91
2021/08/05 18:55:18;;;;;;;1.05;0.95;;;17.70;99.90;;;;;;6262345;22;20042;-89
2021/08/05 18:58:06;;;;;;;1.20;0.90;;;17.70;99.90;;;;;;6262537;22;20051;-88
2021/08/05 19:00:53;;;;;;;1.45;1.10;;;17.70;99.90;;;;;;6285604;22;20080;-88
2021/08/05 19:03:40;;;;;;;2.22;1.50;;;17.60;99.90;;;;;;6304493;22;20031;-89
2021/08/05 19:06:29;;;;;;;1.63;1.50;;;17.60;99.90;;;;;;6285659;22;20015;-91
2021/08/05 19:09:21;;;;;;;1.08;0.88;;;17.60;99.90;;;;;;6286149;22;20023;-88
2021/08/05 19:12:08;;;;;;;1.13;0.90;;;17.50;99.90;;;;;;6285425;22;20034;-91
2021/08/05 19:14:56;;;;;;;0.73;0.73;;;17.50;99.90;;;;;;6287311;22;20031;-89
2021/08/05 19:17:43;;;;;;;1.15;1.05;;;17.40;99.90;;;;;;6284095;22;20027;-89
2021/08/05 19:20:34;;;;;;;1.08;0.70;;;17.40;99.90;;;;;;6266412;22;20428;-92
2021/08/05 19:23:24;;;;;;;1.17;0.90;;;17.40;99.90;;;;;;6285908;22;20064;-88
2021/08/05 19:26:11;;;;;;;1.00;0.88;;;17.40;99.90;;;;;;6286756;22;20082;-90
2021/08/05 19:29:03;;;;;;;1.00;0.90;;;17.30;99.90;;;;;;6284974;22;20038;-88
2021/08/05 19:31:50;;;;;;;3.05;0.90;;;17.30;99.90;;;;;;6287761;22;20037;-89
2021/08/05 19:34:38;;;;;;;1.80;0.80;;;17.30;99.90;;;;;;6291171;22;20027;-88
2021/08/05 19:37:26;;;;;;;2.63;0.93;;;17.30;99.90;;;;;;6266802;22;20027;-86
2021/08/05 19:40:18;;;;;;;2.00;0.88;;;17.30;99.90;;;;;;6282889;22;20382;-86
2021/08/05 19:43:07;;;;;;;1.20;0.90;;;17.20;99.90;;;;;;6285917;22;20019;-86
2021/08/05 19:45:55;;;;;;;2.35;0.70;;;17.10;99.90;;;;;;6305569;22;20238;-85
2021/08/05 19:48:42;;;;;;;0.93;0.75;;;17.10;99.90;;;;;;6307796;22;20027;-86
2021/08/05 19:51:29;;;;;;;1.60;0.90;;;17.20;99.90;;;;;;6307323;22;20027;-86
2021/08/05 19:54:17;;;;;;;0.80;0.80;;;17.10;99.90;;;;;;6284516;22;20050;-86
2021/08/05 19:57:04;;;;;;;0.88;0.88;;;17.10;99.90;;;;;;6306565;22;20339;-87
2021/08/05 19:59:52;;;;;;;1.08;0.98;;;17.10;99.90;;;;;;6307097;22;20047;-86
2021/08/05 20:02:41;;;;;;;2.22;0.90;;;17.00;99.90;;;;;;6305862;22;20027;-87
2021/08/05 20:05:30;;;;;;;3.83;1.02;;;17.00;99.90;;;;;;6305022;22;20019;-87
2021/08/05 20:08:18;;;;;;;2.28;0.80;;;17.00;99.90;;;;;;6283136;22;20027;-88
2021/08/05 20:11:05;;;;;;;1.23;1.05;;;16.90;99.90;;;;;;6305118;22;20031;-85
2021/08/05 20:13:53;;;;;;;4.78;1.05;;;16.80;99.90;;;;;;6307204;22;20310;-85
2021/08/05 20:16:40;;;;;;;3.20;0.90;;;16.80;99.90;;;;;;6308035;22;20023;-87
2021/08/05 20:19:30;;;;;;;2.35;0.90;;;16.70;99.90;;;;;;6303259;22;20319;-85
2021/08/05 20:22:17;;;;;;;4.03;1.20;;;16.60;99.90;;;;;;6305706;22;20045;-87
2021/08/05 20:25:07;;;;;;;1.10;1.10;;;16.60;99.90;;;;;;6284689;22;20089;-87
2021/08/05 20:27:54;;;;;;;1.52;1.10;;;16.50;99.90;;;;;;6283151;22;20079;-86
2021/08/05 20:30:42;;;;;;;1.10;1.00;;;16.40;99.90;;;;;;6283839;22;20109;-85
2021/08/05 20:33:29;;;;;;;1.50;1.00;;;16.30;99.90;;;;;;6306666;22;20027;-85
2021/08/05 20:36:17;;;;;;;6.18;1.00;;;16.20;99.90;;;;;;6283516;22;20023;-86
2021/08/05 20:39:04;;;;;;;1.20;1.10;;;16.10;99.90;;;;;;6304219;22;20132;-87
2021/08/05 20:41:58;;;;;;;0.85;0.75;;;16.10;99.90;;;;;;6302584;22;20038;-88
2021/08/05 20:44:45;;;;;;;1.23;1.20;;;16.00;99.90;;;;;;6283217;22;20326;-88
2021/08/05 20:47:33;;;;;;;3.10;0.95;;;16.00;99.90;;;;;;6304513;22;20054;-87
2021/08/05 20:50:22;;;;;;;1.10;1.00;;;16.00;99.90;;;;;;6263711;22;20027;-86
2021/08/05 20:53:09;;;;;;;1.30;0.88;;;15.90;99.90;;;;;;6284261;22;20027;-87
2021/08/05 20:55:56;;;;;;;1.65;1.20;;;15.80;99.90;;;;;;6305215;22;20027;-87
2021/08/05 20:58:43;;;;;;;3.70;1.25;;;15.80;99.90;;;;;;6300525;22;20239;-89
2021/08/05 21:01:31;;;;;;;2.67;0.70;;;15.70;99.90;;;;;;6282935;22;20023;-85
2021/08/05 21:04:20;;;;;;;2.95;1.00;;;15.60;99.90;;;;;;6283226;22;20437;-87
2021/08/05 21:07:08;;;;;;;2.72;0.90;;;15.60;99.90;;;;;;6282760;22;20026;-86
2021/08/05 21:09:59;;;;;;;1.20;0.80;;;15.60;99.90;;;;;;6281892;22;20580;-85
2021/08/05 21:12:46;;;;;;;2.03;0.95;;;15.50;99.90;;;;;;6281925;22;20042;-83